sensor_id;sensor_type;location;lat;lon;timestamp;pressure;altitude;pressure_sealevel;temperature;humidity
59513;BME280;45330;51.634;5.562;2023-02-02T00:00:46;102049.47;;;7.04;100.00
59513;BME280;45330;51.634;5.562;2023-02-02T00:03:12;102051.25;;;7.05;100.00
59513;BME280;45330;51.634;5.562;2023-02-02T00:05:37;102058.19;;;7.06;100.00
59513;BME280;45330;51.634;5.562;2023-02-02T00:08:03;102054.66;;;7.04;100.00
59513;BME280;45330;51.634;5.562;2023-02-02T00:10:28;102047.63;;;7.00;100.00
59513;BME280;45330;51.634;5.562;2023-02-02T00:12:54;102054.63;;;7.02;100.00
59513;BME280;45330;51.634;5.562;2023-02-02T00:15:22;102049.34;;;6.99;100.00
59513;BME280;45330;51.634;5.562;2023-02-02T00:17:48;102039.47;;;6.86;100.00
59513;BME280;45330;51.634;5.562;2023-02-02T00:20:13;102029.91;;;6.83;100.00
59513;BME280;45330;51.634;5.562;2023-02-02T00:22:39;102049.16;;;6.93;100.00
59513;BME280;45330;51.634;5.562;2023-02-02T00:25:04;102045.44;;;6.83;100.00
59513;BME280;45330;51.634;5.562;2023-02-02T00:27:30;102061.28;;;6.94;100.00
59513;BME280;45330;51.634;5.562;2023-02-02T00:29:55;102054.22;;;6.89;100.00
59513;BME280;45330;51.634;5.562;2023-02-02T00:32:21;102030.53;;;6.75;100.00
59513;BME280;45330;51.634;5.562;2023-02-02T00:34:47;102063.66;;;6.86;100.00
59513;BME280;45330;51.634;5.562;2023-02-02T00:37:12;102059.34;;;6.87;100.00
59513;BME280;45330;51.634;5.562;2023-02-02T00:39:37;102042.75;;;6.80;100.00
59513;BME280;45330;51.634;5.562;2023-02-02T00:42:03;102077.63;;;6.93;100.00
59513;BME280;45330;51.634;5.562;2023-02-02T00:44:28;102069.03;;;6.94;100.00
59513;BME280;45330;51.634;5.562;2023-02-02T00:47:12;102065.63;;;6.95;100.00
59513;BME280;45330;51.634;5.562;2023-02-02T00:49:37;102063.09;;;6.97;100.00
59513;BME280;45330;51.634;5.562;2023-02-02T00:52:02;102031.50;;;6.78;100.00
59513;BME280;45330;51.634;5.562;2023-02-02T00:54:28;102060.56;;;7.00;100.00
59513;BME280;45330;51.634;5.562;2023-02-02T00:56:53;102064.06;;;7.00;100.00
59513;BME280;45330;51.634;5.562;2023-02-02T00:59:19;102052.81;;;7.00;100.00
59513;BME280;45330;51.634;5.562;2023-02-02T01:01:44;102057.13;;;6.99;100.00
59513;BME280;45330;51.634;5.562;2023-02-02T01:04:09;102061.50;;;7.02;100.00
59513;BME280;45330;51.634;5.562;2023-02-02T01:06:35;102055.44;;;7.01;100.00
59513;BME280;45330;51.634;5.562;2023-02-02T01:09:01;102038.88;;;6.95;100.00
59513;BME280;45330;51.634;5.562;2023-02-02T01:11:26;102045.66;;;6.91;100.00
59513;BME280;45330;51.634;5.562;2023-02-02T01:13:52;102063.19;;;7.01;100.00
59513;BME280;45330;51.634;5.562;2023-02-02T01:16:17;102068.41;;;7.03;100.00
59513;BME280;45330;51.634;5.562;2023-02-02T01:18:43;102057.25;;;7.04;100.00
59513;BME280;45330;51.634;5.562;2023-02-02T01:21:10;102033.63;;;6.93;100.00
59513;BME280;45330;51.634;5.562;2023-02-02T01:23:37;102049.31;;;6.98;100.00
59513;BME280;45330;51.634;5.562;2023-02-02T01:26:04;102058.97;;;7.03;100.00
59513;BME280;45330;51.634;5.562;2023-02-02T01:28:30;102024.16;;;6.92;100.00
59513;BME280;45330;51.634;5.562;2023-02-02T01:30:57;102036.22;;;6.93;100.00
59513;BME280;45330;51.634;5.562;2023-02-02T01:33:23;102043.94;;;6.92;100.00
59513;BME280;45330;51.634;5.562;2023-02-02T01:35:51;102057.19;;;7.02;100.00
59513;BME280;45330;51.634;5.562;2023-02-02T01:38:17;102065.75;;;7.00;100.00
59513;BME280;45330;51.634;5.562;2023-02-02T01:40:47;102040.38;;;6.86;100.00
59513;BME280;45330;51.634;5.562;2023-02-02T01:43:23;102056.22;;;6.99;100.00
59513;BME280;45330;51.634;5.562;2023-02-02T01:45:53;102063.03;;;6.95;100.00
59513;BME280;45330;51.634;5.562;2023-02-02T01:48:23;102062.22;;;6.96;100.00
59513;BME280;45330;51.634;5.562;2023-02-02T01:50:52;102060.44;;;6.95;100.00
59513;BME280;45330;51.634;5.562;2023-02-02T01:53:19;102046.41;;;6.87;100.00
59513;BME280;45330;51.634;5.562;2023-02-02T01:55:47;102064.75;;;6.95;100.00
59513;BME280;45330;51.634;5.562;2023-02-02T01:58:19;102065.63;;;6.95;100.00
59513;BME280;45330;51.634;5.562;2023-02-02T02:00:47;102063.88;;;6.94;100.00
59513;BME280;45330;51.634;5.562;2023-02-02T02:03:17;102041.97;;;6.83;100.00
59513;BME280;45330;51.634;5.562;2023-02-02T02:05:51;102043.81;;;6.87;100.00
59513;BME280;45330;51.634;5.562;2023-02-02T02:08:20;102052.50;;;6.89;100.00
59513;BME280;45330;51.634;5.562;2023-02-02T02:10:46;102063.91;;;6.96;100.00
59513;BME280;45330;51.634;5.562;2023-02-02T02:13:12;102057.78;;;6.92;100.00
59513;BME280;45330;51.634;5.562;2023-02-02T02:15:57;102048.88;;;6.82;100.00
59513;BME280;45330;51.634;5.562;2023-02-02T02:18:49;102060.38;;;6.92;100.00
59513;BME280;45330;51.634;5.562;2023-02-02T02:21:39;102063.88;;;6.94;100.00
59513;BME280;45330;51.634;5.562;2023-02-02T02:28:06;102059.44;;;6.90;100.00
59513;BME280;45330;51.634;5.562;2023-02-02T02:33:52;102057.63;;;6.87;100.00
59513;BME280;45330;51.634;5.562;2023-02-02T02:41:42;102048.34;;;6.64;100.00
59513;BME280;45330;51.634;5.562;2023-02-02T02:44:11;102056.09;;;6.64;100.00
59513;BME280;45330;51.634;5.562;2023-02-02T02:46:39;102070.06;;;6.70;100.00
59513;BME280;45330;51.634;5.562;2023-02-02T02:49:07;102063.19;;;6.69;100.00
59513;BME280;45330;51.634;5.562;2023-02-02T02:51:46;102076.03;;;6.68;100.00
59513;BME280;45330;51.634;5.562;2023-02-02T03:04:50;102060.63;;;6.71;100.00
59513;BME280;45330;51.634;5.562;2023-02-02T03:07:28;102054.38;;;6.64;100.00
59513;BME280;45330;51.634;5.562;2023-02-02T03:09:59;102057.88;;;6.66;100.00
59513;BME280;45330;51.634;5.562;2023-02-02T03:12:25;102055.34;;;6.68;100.00
59513;BME280;45330;51.634;5.562;2023-02-02T03:14:50;102042.19;;;6.60;100.00
59513;BME280;45330;51.634;5.562;2023-02-02T03:17:16;102067.44;;;6.69;100.00
59513;BME280;45330;51.634;5.562;2023-02-02T03:19:41;102063.25;;;6.73;100.00
59513;BME280;45330;51.634;5.562;2023-02-02T03:22:06;102048.56;;;6.72;100.00
59513;BME280;45330;51.634;5.562;2023-02-02T03:24:32;102032.97;;;6.68;100.00
59513;BME280;45330;51.634;5.562;2023-02-02T03:26:57;102040.81;;;6.72;100.00
59513;BME280;45330;51.634;5.562;2023-02-02T03:29:23;102041.59;;;6.69;100.00
59513;BME280;45330;51.634;5.562;2023-02-02T03:31:49;102029.19;;;6.57;100.00
59513;BME280;45330;51.634;5.562;2023-02-02T03:34:14;102041.16;;;6.55;100.00
59513;BME280;45330;51.634;5.562;2023-02-02T03:36:39;102054.31;;;6.61;100.00
59513;BME280;45330;51.634;5.562;2023-02-02T03:39:05;102059.47;;;6.61;100.00
59513;BME280;45330;51.634;5.562;2023-02-02T03:41:30;102043.53;;;6.47;100.00
59513;BME280;45330;51.634;5.562;2023-02-02T03:43:55;102043.50;;;6.46;100.00
59513;BME280;45330;51.634;5.562;2023-02-02T03:46:21;102060.22;;;6.57;100.00
59513;BME280;45330;51.634;5.562;2023-02-02T03:48:46;102056.59;;;6.52;100.00
59513;BME280;45330;51.634;5.562;2023-02-02T03:51:13;102068.84;;;6.58;100.00
59513;BME280;45330;51.634;5.562;2023-02-02T03:53:40;102075.81;;;6.60;100.00
59513;BME280;45330;51.634;5.562;2023-02-02T03:56:08;102060.91;;;6.51;100.00
59513;BME280;45330;51.634;5.562;2023-02-02T03:58:33;102079.31;;;6.62;100.00
59513;BME280;45330;51.634;5.562;2023-02-02T04:01:03;102073.31;;;6.63;100.00
59513;BME280;45330;51.634;5.562;2023-02-02T04:03:29;102083.88;;;6.69;100.00
59513;BME280;45330;51.634;5.562;2023-02-02T04:05:55;102062.06;;;6.61;100.00
59513;BME280;45330;51.634;5.562;2023-02-02T04:08:20;102084.03;;;6.76;100.00
59513;BME280;45330;51.634;5.562;2023-02-02T04:10:45;102069.13;;;6.67;100.00
59513;BME280;45330;51.634;5.562;2023-02-02T04:13:11;102077.84;;;6.70;100.00
59513;BME280;45330;51.634;5.562;2023-02-02T04:15:36;102095.53;;;6.85;100.00
59513;BME280;45330;51.634;5.562;2023-02-02T04:18:02;102089.38;;;6.82;100.00
59513;BME280;45330;51.634;5.562;2023-02-02T04:20:27;102090.41;;;6.87;100.00
59513;BME280;45330;51.634;5.562;2023-02-02T04:22:53;102103.41;;;6.90;100.00
59513;BME280;45330;51.634;5.562;2023-02-02T04:25:18;102085.88;;;6.80;100.00
59513;BME280;45330;51.634;5.562;2023-02-02T04:27:44;102096.47;;;6.89;100.00
59513;BME280;45330;51.634;5.562;2023-02-02T04:30:10;102099.94;;;6.88;100.00
59513;BME280;45330;51.634;5.562;2023-02-02T04:32:35;102100.78;;;6.89;100.00
59513;BME280;45330;51.634;5.562;2023-02-02T04:35:00;102081.50;;;6.77;100.00
59513;BME280;45330;51.634;5.562;2023-02-02T04:37:26;102099.94;;;6.88;100.00
59513;BME280;45330;51.634;5.562;2023-02-02T04:39:51;102094.75;;;6.88;100.00
59513;BME280;45330;51.634;5.562;2023-02-02T04:42:18;102105.94;;;6.87;100.00
59513;BME280;45330;51.634;5.562;2023-02-02T04:44:44;102089.56;;;6.88;100.00
59513;BME280;45330;51.634;5.562;2023-02-02T04:47:10;102093.03;;;6.89;100.00
59513;BME280;45330;51.634;5.562;2023-02-02T04:49:35;102065.19;;;6.80;100.00
59513;BME280;45330;51.634;5.562;2023-02-02T04:52:01;102077.38;;;6.84;100.00
59513;BME280;45330;51.634;5.562;2023-02-02T04:54:26;102083.47;;;6.86;100.00
59513;BME280;45330;51.634;5.562;2023-02-02T04:56:51;102088.56;;;6.83;100.00
59513;BME280;45330;51.634;5.562;2023-02-02T04:59:17;102088.63;;;6.86;100.00
59513;BME280;45330;51.634;5.562;2023-02-02T05:01:42;102072.81;;;6.75;100.00
59513;BME280;45330;51.634;5.562;2023-02-02T05:04:09;102090.13;;;6.78;100.00
59513;BME280;45330;51.634;5.562;2023-02-02T05:06:35;102084.13;;;6.79;100.00
59513;BME280;45330;51.634;5.562;2023-02-02T05:09:00;102104.19;;;6.87;100.00
59513;BME280;45330;51.634;5.562;2023-02-02T05:11:26;102108.69;;;6.93;100.00
59513;BME280;45330;51.634;5.562;2023-02-02T05:13:53;102116.53;;;6.95;100.00
59513;BME280;45330;51.634;5.562;2023-02-02T05:16:19;102104.44;;;6.95;100.00
59513;BME280;45330;51.634;5.562;2023-02-02T05:18:49;102094.06;;;6.94;100.00
59513;BME280;45330;51.634;5.562;2023-02-02T05:21:15;102072.00;;;6.78;100.00
59513;BME280;45330;51.634;5.562;2023-02-02T05:23:40;102104.41;;;6.94;100.00
59513;BME280;45330;51.634;5.562;2023-02-02T05:26:05;102096.72;;;6.97;100.00
59513;BME280;45330;51.634;5.562;2023-02-02T05:28:31;102085.19;;;6.85;100.00
59513;BME280;45330;51.634;5.562;2023-02-02T05:30:59;102103.75;;;7.01;100.00
59513;BME280;45330;51.634;5.562;2023-02-02T05:33:29;102118.41;;;7.00;100.00
59513;BME280;45330;51.634;5.562;2023-02-02T05:35:54;102113.16;;;6.99;100.00
59513;BME280;45330;51.634;5.562;2023-02-02T05:38:19;102126.16;;;7.00;100.00
59513;BME280;45330;51.634;5.562;2023-02-02T05:40:47;102104.31;;;6.91;100.00
59513;BME280;45330;51.634;5.562;2023-02-02T05:43:12;102092.13;;;6.86;100.00
59513;BME280;45330;51.634;5.562;2023-02-02T05:45:38;102107.13;;;6.98;100.00
59513;BME280;45330;51.634;5.562;2023-02-02T05:48:04;102099.16;;;6.91;100.00
59513;BME280;45330;51.634;5.562;2023-02-02T05:50:30;102101.16;;;7.01;100.00
59513;BME280;45330;51.634;5.562;2023-02-02T05:52:55;102112.41;;;7.03;100.00
59513;BME280;45330;51.634;5.562;2023-02-02T05:55:20;102115.03;;;7.04;100.00
59513;BME280;45330;51.634;5.562;2023-02-02T05:57:46;102086.25;;;6.92;100.00
59513;BME280;45330;51.634;5.562;2023-02-02T06:00:11;102118.56;;;7.07;100.00
59513;BME280;45330;51.634;5.562;2023-02-02T06:02:37;102119.44;;;7.07;100.00
59513;BME280;45330;51.634;5.562;2023-02-02T06:05:03;102117.63;;;7.04;100.00
59513;BME280;45330;51.634;5.562;2023-02-02T06:07:28;102102.69;;;6.94;100.00
59513;BME280;45330;51.634;5.562;2023-02-02T06:09:53;102110.72;;;7.03;100.00
59513;BME280;45330;51.634;5.562;2023-02-02T06:12:19;102099.44;;;7.01;100.00
59513;BME280;45330;51.634;5.562;2023-02-02T06:14:44;102095.00;;;6.97;100.00
59513;BME280;45330;51.634;5.562;2023-02-02T06:17:10;102119.31;;;7.02;100.00
59513;BME280;45330;51.634;5.562;2023-02-02T06:19:35;102122.72;;;7.01;100.00
59513;BME280;45330;51.634;5.562;2023-02-02T06:22:00;102115.53;;;6.91;100.00
59513;BME280;45330;51.634;5.562;2023-02-02T06:24:26;102129.63;;;7.01;100.00
59513;BME280;45330;51.634;5.562;2023-02-02T06:26:51;102128.94;;;7.07;100.00
59513;BME280;45330;51.634;5.562;2023-02-02T06:29:16;102128.84;;;7.03;100.00
59513;BME280;45330;51.634;5.562;2023-02-02T06:31:42;102117.31;;;6.92;100.00
59513;BME280;45330;51.634;5.562;2023-02-02T06:34:09;102125.97;;;6.94;100.00
59513;BME280;45330;51.634;5.562;2023-02-02T06:36:37;102135.66;;;7.01;100.00
59513;BME280;45330;51.634;5.562;2023-02-02T06:39:02;102106.84;;;6.89;100.00
59513;BME280;45330;51.634;5.562;2023-02-02T06:41:30;102126.25;;;7.03;100.00
59513;BME280;45330;51.634;5.562;2023-02-02T06:43:55;102137.38;;;7.01;100.00
59513;BME280;45330;51.634;5.562;2023-02-02T06:46:21;102119.72;;;6.87;100.00
59513;BME280;45330;51.634;5.562;2023-02-02T06:48:46;102144.38;;;7.03;100.00
59513;BME280;45330;51.634;5.562;2023-02-02T06:51:12;102145.06;;;6.98;100.00
59513;BME280;45330;51.634;5.562;2023-02-02T06:53:38;102145.94;;;6.98;100.00
59513;BME280;45330;51.634;5.562;2023-02-02T06:56:05;102134.47;;;6.90;100.00
59513;BME280;45330;51.634;5.562;2023-02-02T06:58:32;102159.00;;;7.03;100.00
59513;BME280;45330;51.634;5.562;2023-02-02T07:01:09;102139.72;;;6.93;100.00
59513;BME280;45330;51.634;5.562;2023-02-02T07:03:35;102163.28;;;7.01;100.00
59513;BME280;45330;51.634;5.562;2023-02-02T07:06:17;102145.56;;;6.86;100.00
59513;BME280;45330;51.634;5.562;2023-02-02T07:08:43;102142.88;;;6.83;100.00
59513;BME280;45330;51.634;5.562;2023-02-02T07:11:09;102157.69;;;6.87;100.00
59513;BME280;45330;51.634;5.562;2023-02-02T07:13:35;102158.41;;;6.83;100.00
59513;BME280;45330;51.634;5.562;2023-02-02T07:16:02;102174.72;;;6.80;100.00
59513;BME280;45330;51.634;5.562;2023-02-02T07:18:28;102168.75;;;6.83;100.00
59513;BME280;45330;51.634;5.562;2023-02-02T07:20:57;102173.84;;;6.80;100.00
59513;BME280;45330;51.634;5.562;2023-02-02T07:23:22;102173.94;;;6.83;100.00
59513;BME280;45330;51.634;5.562;2023-02-02T07:25:48;102169.53;;;6.80;100.00
59513;BME280;45330;51.634;5.562;2023-02-02T07:28:13;102157.06;;;6.67;100.00
59513;BME280;45330;51.634;5.562;2023-02-02T07:30:38;102171.00;;;6.72;100.00
59513;BME280;45330;51.634;5.562;2023-02-02T07:33:04;102147.38;;;6.60;100.00
59513;BME280;45330;51.634;5.562;2023-02-02T07:35:29;102165.75;;;6.69;100.00
59513;BME280;45330;51.634;5.562;2023-02-02T07:37:54;102158.56;;;6.60;100.00
59513;BME280;45330;51.634;5.562;2023-02-02T07:40:20;102168.88;;;6.59;100.00
59513;BME280;45330;51.634;5.562;2023-02-02T07:42:46;102166.88;;;6.50;100.00
59513;BME280;45330;51.634;5.562;2023-02-02T07:45:12;102179.88;;;6.51;100.00
59513;BME280;45330;51.634;5.562;2023-02-02T07:47:38;102180.78;;;6.53;100.00
59513;BME280;45330;51.634;5.562;2023-02-02T07:50:03;102180.88;;;6.57;100.00
59513;BME280;45330;51.634;5.562;2023-02-02T07:52:29;102191.88;;;6.51;100.00
59513;BME280;45330;51.634;5.562;2023-02-02T07:54:54;102190.25;;;6.53;100.00
59513;BME280;45330;51.634;5.562;2023-02-02T07:57:20;102184.94;;;6.48;100.00
59513;BME280;45330;51.634;5.562;2023-02-02T07:59:45;102187.72;;;6.55;100.00
59513;BME280;45330;51.634;5.562;2023-02-02T08:02:11;102193.13;;;6.62;100.00
59513;BME280;45330;51.634;5.562;2023-02-02T08:04:36;102184.66;;;6.68;100.00
59513;BME280;45330;51.634;5.562;2023-02-02T08:07:02;102199.53;;;6.74;100.00
59513;BME280;45330;51.634;5.562;2023-02-02T08:09:27;102163.03;;;6.64;100.00
59513;BME280;45330;51.634;5.562;2023-02-02T08:11:52;102198.34;;;6.91;100.00
59513;BME280;45330;51.634;5.562;2023-02-02T08:14:18;102208.78;;;6.94;100.00
59513;BME280;45330;51.634;5.562;2023-02-02T08:16:43;102205.50;;;7.00;100.00
59513;BME280;45330;51.634;5.562;2023-02-02T08:19:10;102205.63;;;7.04;100.00
59513;BME280;45330;51.634;5.562;2023-02-02T08:21:35;102189.06;;;6.98;100.00
59513;BME280;45330;51.634;5.562;2023-02-02T08:24:01;102196.03;;;7.00;100.00
59513;BME280;45330;51.634;5.562;2023-02-02T08:26:30;102198.06;;;7.11;100.00
59513;BME280;45330;51.634;5.562;2023-02-02T08:28:58;102199.72;;;7.09;100.00
59513;BME280;45330;51.634;5.562;2023-02-02T08:31:27;102208.88;;;7.26;100.00
59513;BME280;45330;51.634;5.562;2023-02-02T08:33:53;102202.63;;;7.19;100.00
59513;BME280;45330;51.634;5.562;2023-02-02T08:36:21;102202.69;;;7.21;100.00
59513;BME280;45330;51.634;5.562;2023-02-02T08:38:47;102227.19;;;7.32;100.00
59513;BME280;45330;51.634;5.562;2023-02-02T08:41:15;102215.63;;;7.21;100.00
59513;BME280;45330;51.634;5.562;2023-02-02T08:43:41;102222.47;;;7.19;100.00
59513;BME280;45330;51.634;5.562;2023-02-02T08:46:08;102240.03;;;7.29;100.00
59513;BME280;45330;51.634;5.562;2023-02-02T08:48:34;102253.03;;;7.31;100.00
59513;BME280;45330;51.634;5.562;2023-02-02T08:51:00;102237.25;;;7.21;100.00
59513;BME280;45330;51.634;5.562;2023-02-02T08:53:27;102248.47;;;7.22;100.00
59513;BME280;45330;51.634;5.562;2023-02-02T08:56:04;102267.81;;;7.35;100.00
59513;BME280;45330;51.634;5.562;2023-02-02T08:58:31;102274.72;;;7.34;100.00
59513;BME280;45330;51.634;5.562;2023-02-02T09:01:12;102279.88;;;7.33;100.00
59513;BME280;45330;51.634;5.562;2023-02-02T09:03:39;102255.44;;;7.25;100.00
59513;BME280;45330;51.634;5.562;2023-02-02T09:06:13;102286.94;;;7.38;100.00
59513;BME280;45330;51.634;5.562;2023-02-02T09:08:39;102305.06;;;7.38;100.00
59513;BME280;45330;51.634;5.562;2023-02-02T09:11:11;102285.00;;;7.31;100.00
59513;BME280;45330;51.634;5.562;2023-02-02T09:13:38;102280.69;;;7.32;100.00
59513;BME280;45330;51.634;5.562;2023-02-02T09:16:06;102290.41;;;7.39;100.00
59513;BME280;45330;51.634;5.562;2023-02-02T09:18:31;102280.00;;;7.37;100.00
59513;BME280;45330;51.634;5.562;2023-02-02T09:21:02;102289.69;;;7.45;100.00
59513;BME280;45330;51.634;5.562;2023-02-02T09:23:29;102289.06;;;7.52;100.00
59513;BME280;45330;51.634;5.562;2023-02-02T09:25:55;102290.91;;;7.56;100.00
59513;BME280;45330;51.634;5.562;2023-02-02T09:28:20;102304.91;;;7.63;100.00
59513;BME280;45330;51.634;5.562;2023-02-02T09:30:45;102296.44;;;7.68;100.00
59513;BME280;45330;51.634;5.562;2023-02-02T09:33:11;102312.22;;;7.76;100.00
59513;BME280;45330;51.634;5.562;2023-02-02T09:35:36;102311.25;;;7.72;100.00
59513;BME280;45330;51.634;5.562;2023-02-02T09:38:02;102307.13;;;7.79;100.00
59513;BME280;45330;51.634;5.562;2023-02-02T09:40:30;102311.78;;;7.91;100.00
59513;BME280;45330;51.634;5.562;2023-02-02T09:45:34;102300.03;;;8.04;100.00
59513;BME280;45330;51.634;5.562;2023-02-02T09:51:08;102340.94;;;8.45;100.00
59513;BME280;45330;51.634;5.562;2023-02-02T09:56:15;102344.59;;;8.51;100.00
59513;BME280;45330;51.634;5.562;2023-02-02T09:58:51;102333.41;;;8.54;100.00
59513;BME280;45330;51.634;5.562;2023-02-02T10:01:30;102323.78;;;8.50;100.00
59513;BME280;45330;51.634;5.562;2023-02-02T10:04:03;102326.94;;;8.39;100.00
59513;BME280;45330;51.634;5.562;2023-02-02T10:06:40;102326.03;;;8.37;100.00
59513;BME280;45330;51.634;5.562;2023-02-02T10:09:30;102342.94;;;8.55;100.00
59513;BME280;45330;51.634;5.562;2023-02-02T10:14:53;102339.59;;;8.59;100.00
59513;BME280;45330;51.634;5.562;2023-02-02T10:20:02;102336.13;;;8.58;100.00
59513;BME280;45330;51.634;5.562;2023-02-02T10:22:32;102328.34;;;8.58;100.00
59513;BME280;45330;51.634;5.562;2023-02-02T10:24:58;102354.47;;;8.66;100.00
59513;BME280;45330;51.634;5.562;2023-02-02T10:27:46;102359.59;;;8.63;100.00
59513;BME280;45330;51.634;5.562;2023-02-02T10:30:18;102343.69;;;8.51;100.00
59513;BME280;45330;51.634;5.562;2023-02-02T10:32:57;102342.94;;;8.55;100.00
59513;BME280;45330;51.634;5.562;2023-02-02T10:41:01;102344.75;;;8.57;100.00
59513;BME280;45330;51.634;5.562;2023-02-02T10:43:52;102340.47;;;8.60;100.00
59513;BME280;45330;51.634;5.562;2023-02-02T10:46:35;102365.06;;;8.74;100.00
59513;BME280;45330;51.634;5.562;2023-02-02T10:54:41;102361.00;;;8.84;100.00
59513;BME280;45330;51.634;5.562;2023-02-02T10:57:11;102372.31;;;8.87;100.00
59513;BME280;45330;51.634;5.562;2023-02-02T11:02:35;102381.03;;;8.89;100.00
59513;BME280;45330;51.634;5.562;2023-02-02T11:05:00;102386.09;;;8.83;100.00
59513;BME280;45330;51.634;5.562;2023-02-02T11:07:44;102381.53;;;8.76;100.00
59513;BME280;45330;51.634;5.562;2023-02-02T11:10:09;102369.13;;;8.64;100.00
59513;BME280;45330;51.634;5.562;2023-02-02T11:12:38;102362.44;;;8.72;100.00
59513;BME280;45330;51.634;5.562;2023-02-02T11:15:08;102355.50;;;8.73;100.00
59513;BME280;45330;51.634;5.562;2023-02-02T11:17:46;102373.31;;;8.92;100.00
59513;BME280;45330;51.634;5.562;2023-02-02T11:20:33;102351.97;;;8.69;100.00
59513;BME280;45330;51.634;5.562;2023-02-02T11:23:01;102372.91;;;8.75;100.00
59513;BME280;45330;51.634;5.562;2023-02-02T11:25:35;102368.53;;;8.74;100.00
59513;BME280;45330;51.634;5.562;2023-02-02T11:28:17;102369.66;;;8.84;100.00
59513;BME280;45330;51.634;5.562;2023-02-02T11:30:48;102372.28;;;8.86;100.00
59513;BME280;45330;51.634;5.562;2023-02-02T11:33:28;102361.78;;;8.81;100.00
59513;BME280;45330;51.634;5.562;2023-02-02T11:36:04;102374.88;;;8.86;100.00
59513;BME280;45330;51.634;5.562;2023-02-02T11:38:30;102370.56;;;8.85;100.00
59513;BME280;45330;51.634;5.562;2023-02-02T11:41:01;102363.31;;;8.73;100.00
59513;BME280;45330;51.634;5.562;2023-02-02T11:43:58;102376.53;;;8.82;100.00
59513;BME280;45330;51.634;5.562;2023-02-02T11:46:28;102352.94;;;8.73;100.00
59513;BME280;45330;51.634;5.562;2023-02-02T11:48:59;102369.41;;;8.73;100.00
59513;BME280;45330;51.634;5.562;2023-02-02T11:51:27;102344.78;;;8.59;100.00
59513;BME280;45330;51.634;5.562;2023-02-02T11:56:39;102362.03;;;8.57;100.00
59513;BME280;45330;51.634;5.562;2023-02-02T11:59:41;102354.72;;;8.44;100.00
59513;BME280;45330;51.634;5.562;2023-02-02T12:04:44;102370.41;;;8.47;100.00
59513;BME280;45330;51.634;5.562;2023-02-02T12:09:48;102346.75;;;8.36;100.00
59513;BME280;45330;51.634;5.562;2023-02-02T12:17:34;102372.16;;;8.48;100.00
59513;BME280;45330;51.634;5.562;2023-02-02T12:24:56;102376.44;;;8.46;100.00
59513;BME280;45330;51.634;5.562;2023-02-02T12:33:20;102372.34;;;8.54;100.00
59513;BME280;45330;51.634;5.562;2023-02-02T12:49:35;102340.75;;;8.38;100.00
59513;BME280;45330;51.634;5.562;2023-02-02T12:55:27;102321.28;;;8.22;100.00
59513;BME280;45330;51.634;5.562;2023-02-02T12:58:21;102350.16;;;8.35;100.00
59513;BME280;45330;51.634;5.562;2023-02-02T13:01:18;102362.94;;;8.27;100.00
59513;BME280;45330;51.634;5.562;2023-02-02T13:04:12;102353.06;;;8.15;100.00
59513;BME280;45330;51.634;5.562;2023-02-02T13:10:02;102341.53;;;8.04;100.00
59513;BME280;45330;51.634;5.562;2023-02-02T13:12:34;102347.53;;;8.03;100.00
59513;BME280;45330;51.634;5.562;2023-02-02T13:15:05;102334.19;;;7.89;100.00
59513;BME280;45330;51.634;5.562;2023-02-02T13:17:44;102328.66;;;7.77;100.00
59513;BME280;45330;51.634;5.562;2023-02-02T13:22:58;102361.13;;;7.94;100.00
59513;BME280;45330;51.634;5.562;2023-02-02T13:25:34;102357.59;;;7.92;100.00
59513;BME280;45330;51.634;5.562;2023-02-02T13:28:03;102353.22;;;7.89;100.00
59513;BME280;45330;51.634;5.562;2023-02-02T13:30:35;102347.19;;;7.90;100.00
59513;BME280;45330;51.634;5.562;2023-02-02T13:33:24;102335.84;;;7.87;100.00
59513;BME280;45330;51.634;5.562;2023-02-02T13:36:05;102357.78;;;7.98;100.00
59513;BME280;45330;51.634;5.562;2023-02-02T13:38:32;102326.50;;;7.92;100.00
59513;BME280;45330;51.634;5.562;2023-02-02T13:41:01;102338.06;;;8.03;100.00
59513;BME280;45330;51.634;5.562;2023-02-02T13:46:32;102348.22;;;7.97;100.00
59513;BME280;45330;51.634;5.562;2023-02-02T13:54:46;102341.06;;;7.58;100.00
59513;BME280;45330;51.634;5.562;2023-02-02T13:57:46;102347.88;;;7.56;100.00
59513;BME280;45330;51.634;5.562;2023-02-02T14:00:22;102347.66;;;7.48;100.00
59513;BME280;45330;51.634;5.562;2023-02-02T14:02:53;102344.00;;;7.42;100.00
59513;BME280;45330;51.634;5.562;2023-02-02T14:05:33;102358.91;;;7.49;100.00
59513;BME280;45330;51.634;5.562;2023-02-02T14:08:16;102353.72;;;7.49;100.00
59513;BME280;45330;51.634;5.562;2023-02-02T14:16:03;102365.94;;;7.53;100.00
59513;BME280;45330;51.634;5.562;2023-02-02T14:26:57;102365.47;;;7.66;100.00
59513;BME280;45330;51.634;5.562;2023-02-02T14:34:34;102375.94;;;7.42;100.00
59513;BME280;45330;51.634;5.562;2023-02-02T14:40:01;102382.44;;;7.29;100.00
59513;BME280;45330;51.634;5.562;2023-02-02T14:45:43;102387.41;;;7.21;100.00
59513;BME280;45330;51.634;5.562;2023-02-02T14:56:07;102384.53;;;7.14;100.00
59513;BME280;45330;51.634;5.562;2023-02-02T15:14:44;102395.47;;;7.05;100.00
59513;BME280;45330;51.634;5.562;2023-02-02T15:25:17;102406.44;;;6.98;100.00
59513;BME280;45330;51.634;5.562;2023-02-02T15:27:49;102400.38;;;6.97;100.00
59513;BME280;45330;51.634;5.562;2023-02-02T15:30:16;102380.91;;;6.83;100.00
59513;BME280;45330;51.634;5.562;2023-02-02T15:32:42;102395.00;;;6.91;100.00
59513;BME280;45330;51.634;5.562;2023-02-02T15:35:18;102399.31;;;6.91;100.00
59513;BME280;45330;51.634;5.562;2023-02-02T15:37:49;102394.81;;;6.85;100.00
59513;BME280;45330;51.634;5.562;2023-02-02T15:40:21;102377.09;;;6.72;100.00
59513;BME280;45330;51.634;5.562;2023-02-02T15:43:07;102409.59;;;6.89;100.00